sensor_id;sensor_type;location;lat;lon;timestamp;temperature;humidity
31733;DHT22;18312;51.486;7.144;2023-08-01T00:02:08;17.40;99.90
31733;DHT22;18312;51.486;7.144;2023-08-01T00:04:34;17.20;99.90
31733;DHT22;18312;51.486;7.144;2023-08-01T00:07:01;17.20;99.90
31733;DHT22;18312;51.486;7.144;2023-08-01T00:09:28;17.10;99.90
31733;DHT22;18312;51.486;7.144;2023-08-01T00:11:55;17.10;99.90
31733;DHT22;18312;51.486;7.144;2023-08-01T00:14:23;17.10;99.90
31733;DHT22;18312;51.486;7.144;2023-08-01T00:16:50;17.20;99.90
31733;DHT22;18312;51.486;7.144;2023-08-01T00:19:17;17.10;99.90
31733;DHT22;18312;51.486;7.144;2023-08-01T00:21:44;17.10;99.90
31733;DHT22;18312;51.486;7.144;2023-08-01T00:24:12;17.00;99.90
31733;DHT22;18312;51.486;7.144;2023-08-01T00:26:39;17.00;99.90
31733;DHT22;18312;51.486;7.144;2023-08-01T00:29:06;17.00;99.90
31733;DHT22;18312;51.486;7.144;2023-08-01T00:31:34;17.00;99.90
31733;DHT22;18312;51.486;7.144;2023-08-01T00:34:01;17.00;99.90
31733;DHT22;18312;51.486;7.144;2023-08-01T00:36:27;17.00;99.90
31733;DHT22;18312;51.486;7.144;2023-08-01T00:38:54;17.00;99.90
31733;DHT22;18312;51.486;7.144;2023-08-01T00:41:21;17.00;99.90
31733;DHT22;18312;51.486;7.144;2023-08-01T00:43:48;17.00;99.90
31733;DHT22;18312;51.486;7.144;2023-08-01T00:46:15;17.00;99.90
31733;DHT22;18312;51.486;7.144;2023-08-01T00:48:43;16.90;99.90
31733;DHT22;18312;51.486;7.144;2023-08-01T00:51:11;16.90;99.90
31733;DHT22;18312;51.486;7.144;2023-08-01T00:53:38;16.90;99.90
31733;DHT22;18312;51.486;7.144;2023-08-01T00:56:05;16.90;99.90
31733;DHT22;18312;51.486;7.144;2023-08-01T00:58:32;16.90;99.90
31733;DHT22;18312;51.486;7.144;2023-08-01T01:00:59;16.90;99.90
31733;DHT22;18312;51.486;7.144;2023-08-01T01:03:26;16.90;99.90
31733;DHT22;18312;51.486;7.144;2023-08-01T01:05:59;16.90;99.90
31733;DHT22;18312;51.486;7.144;2023-08-01T01:08:27;16.90;99.90
31733;DHT22;18312;51.486;7.144;2023-08-01T01:10:54;16.90;99.90
31733;DHT22;18312;51.486;7.144;2023-08-01T01:13:21;17.00;99.90
31733;DHT22;18312;51.486;7.144;2023-08-01T01:15:48;17.00;99.90
31733;DHT22;18312;51.486;7.144;2023-08-01T01:18:15;17.00;99.90
31733;DHT22;18312;51.486;7.144;2023-08-01T01:20:43;17.00;99.90
31733;DHT22;18312;51.486;7.144;2023-08-01T01:23:11;17.10;99.90
31733;DHT22;18312;51.486;7.144;2023-08-01T01:25:39;17.00;99.90
31733;DHT22;18312;51.486;7.144;2023-08-01T01:28:07;17.00;99.90
31733;DHT22;18312;51.486;7.144;2023-08-01T01:30:42;17.00;99.90
31733;DHT22;18312;51.486;7.144;2023-08-01T01:33:10;16.90;99.90
31733;DHT22;18312;51.486;7.144;2023-08-01T01:35:37;17.00;99.90
31733;DHT22;18312;51.486;7.144;2023-08-01T01:38:06;17.00;99.90
31733;DHT22;18312;51.486;7.144;2023-08-01T01:40:33;17.00;99.90
31733;DHT22;18312;51.486;7.144;2023-08-01T01:43:01;17.00;99.90
31733;DHT22;18312;51.486;7.144;2023-08-01T01:45:28;16.90;99.90
31733;DHT22;18312;51.486;7.144;2023-08-01T01:47:55;16.90;99.90
31733;DHT22;18312;51.486;7.144;2023-08-01T01:50:21;16.80;99.90
31733;DHT22;18312;51.486;7.144;2023-08-01T01:52:48;16.90;99.90
31733;DHT22;18312;51.486;7.144;2023-08-01T01:55:17;16.80;99.90
31733;DHT22;18312;51.486;7.144;2023-08-01T01:57:43;16.80;99.90
31733;DHT22;18312;51.486;7.144;2023-08-01T02:00:11;16.80;99.90
31733;DHT22;18312;51.486;7.144;2023-08-01T02:02:38;16.60;99.90
31733;DHT22;18312;51.486;7.144;2023-08-01T02:05:06;16.50;99.90
31733;DHT22;18312;51.486;7.144;2023-08-01T02:07:32;16.50;99.90
31733;DHT22;18312;51.486;7.144;2023-08-01T02:09:59;16.50;99.90
31733;DHT22;18312;51.486;7.144;2023-08-01T02:12:28;16.50;99.90
31733;DHT22;18312;51.486;7.144;2023-08-01T02:14:57;16.50;99.90
31733;DHT22;18312;51.486;7.144;2023-08-01T02:17:23;16.50;99.90
31733;DHT22;18312;51.486;7.144;2023-08-01T02:19:50;16.50;99.90
31733;DHT22;18312;51.486;7.144;2023-08-01T02:22:17;16.40;99.90
31733;DHT22;18312;51.486;7.144;2023-08-01T02:24:44;16.50;99.90
31733;DHT22;18312;51.486;7.144;2023-08-01T02:27:11;16.40;99.90
31733;DHT22;18312;51.486;7.144;2023-08-01T02:29:39;16.50;99.90
31733;DHT22;18312;51.486;7.144;2023-08-01T02:32:06;16.30;99.90
31733;DHT22;18312;51.486;7.144;2023-08-01T02:34:33;16.30;99.90
31733;DHT22;18312;51.486;7.144;2023-08-01T02:37:00;16.30;99.90
31733;DHT22;18312;51.486;7.144;2023-08-01T02:39:27;16.40;99.90
31733;DHT22;18312;51.486;7.144;2023-08-01T02:41:53;16.30;99.90
31733;DHT22;18312;51.486;7.144;2023-08-01T02:44:20;16.30;99.90
31733;DHT22;18312;51.486;7.144;2023-08-01T02:46:48;16.30;99.90
31733;DHT22;18312;51.486;7.144;2023-08-01T02:49:15;16.40;99.90
31733;DHT22;18312;51.486;7.144;2023-08-01T02:51:42;16.40;99.90
31733;DHT22;18312;51.486;7.144;2023-08-01T02:54:08;16.40;99.90
31733;DHT22;18312;51.486;7.144;2023-08-01T02:56:35;16.40;99.90
31733;DHT22;18312;51.486;7.144;2023-08-01T02:59:06;16.50;99.90
31733;DHT22;18312;51.486;7.144;2023-08-01T03:01:34;16.40;99.90
31733;DHT22;18312;51.486;7.144;2023-08-01T03:04:02;16.50;99.90
31733;DHT22;18312;51.486;7.144;2023-08-01T03:06:29;16.50;99.90
31733;DHT22;18312;51.486;7.144;2023-08-01T03:08:55;16.50;99.90
31733;DHT22;18312;51.486;7.144;2023-08-01T03:11:22;16.60;99.90
31733;DHT22;18312;51.486;7.144;2023-08-01T03:13:49;16.60;99.90
31733;DHT22;18312;51.486;7.144;2023-08-01T03:16:16;16.60;99.90
31733;DHT22;18312;51.486;7.144;2023-08-01T03:18:43;16.60;99.90
31733;DHT22;18312;51.486;7.144;2023-08-01T03:21:11;16.70;99.90
31733;DHT22;18312;51.486;7.144;2023-08-01T03:23:39;16.70;99.90
31733;DHT22;18312;51.486;7.144;2023-08-01T03:26:06;16.60;99.90
31733;DHT22;18312;51.486;7.144;2023-08-01T03:28:32;16.70;99.90
31733;DHT22;18312;51.486;7.144;2023-08-01T03:30:59;16.60;99.90
31733;DHT22;18312;51.486;7.144;2023-08-01T03:33:26;16.70;99.90
31733;DHT22;18312;51.486;7.144;2023-08-01T03:35:53;16.70;99.90
31733;DHT22;18312;51.486;7.144;2023-08-01T03:38:21;16.70;99.90
31733;DHT22;18312;51.486;7.144;2023-08-01T03:40:49;16.70;99.90
31733;DHT22;18312;51.486;7.144;2023-08-01T03:43:15;16.70;99.90
31733;DHT22;18312;51.486;7.144;2023-08-01T03:45:42;16.70;99.90
31733;DHT22;18312;51.486;7.144;2023-08-01T03:48:09;16.70;99.90
31733;DHT22;18312;51.486;7.144;2023-08-01T03:50:37;16.70;99.90
31733;DHT22;18312;51.486;7.144;2023-08-01T03:53:03;16.80;99.90
31733;DHT22;18312;51.486;7.144;2023-08-01T03:55:32;16.80;99.90
31733;DHT22;18312;51.486;7.144;2023-08-01T03:57:59;16.70;99.90
31733;DHT22;18312;51.486;7.144;2023-08-01T04:00:25;16.70;99.90
31733;DHT22;18312;51.486;7.144;2023-08-01T04:02:57;16.70;99.90
31733;DHT22;18312;51.486;7.144;2023-08-01T04:05:24;16.60;99.90
31733;DHT22;18312;51.486;7.144;2023-08-01T04:07:51;16.40;99.90
31733;DHT22;18312;51.486;7.144;2023-08-01T04:10:20;16.40;99.90
31733;DHT22;18312;51.486;7.144;2023-08-01T04:12:48;16.40;99.90
31733;DHT22;18312;51.486;7.144;2023-08-01T04:15:15;16.40;99.90
31733;DHT22;18312;51.486;7.144;2023-08-01T04:17:42;16.30;99.90
31733;DHT22;18312;51.486;7.144;2023-08-01T04:20:09;16.30;99.90
31733;DHT22;18312;51.486;7.144;2023-08-01T04:22:36;16.30;99.90
31733;DHT22;18312;51.486;7.144;2023-08-01T04:25:03;16.20;99.90
31733;DHT22;18312;51.486;7.144;2023-08-01T04:27:30;16.20;99.90
31733;DHT22;18312;51.486;7.144;2023-08-01T04:29:58;16.30;99.90
31733;DHT22;18312;51.486;7.144;2023-08-01T04:32:25;16.20;99.90
31733;DHT22;18312;51.486;7.144;2023-08-01T04:34:52;16.30;99.90
31733;DHT22;18312;51.486;7.144;2023-08-01T04:37:19;16.20;99.90
31733;DHT22;18312;51.486;7.144;2023-08-01T04:39:48;16.20;99.90
31733;DHT22;18312;51.486;7.144;2023-08-01T04:42:15;16.20;99.90
31733;DHT22;18312;51.486;7.144;2023-08-01T04:44:42;16.20;99.90
31733;DHT22;18312;51.486;7.144;2023-08-01T04:47:10;16.20;99.90
31733;DHT22;18312;51.486;7.144;2023-08-01T04:49:37;16.30;99.90
31733;DHT22;18312;51.486;7.144;2023-08-01T04:52:05;16.20;99.90
31733;DHT22;18312;51.486;7.144;2023-08-01T04:54:31;16.30;99.90
31733;DHT22;18312;51.486;7.144;2023-08-01T04:56:58;16.30;99.90
31733;DHT22;18312;51.486;7.144;2023-08-01T04:59:25;16.30;99.90
31733;DHT22;18312;51.486;7.144;2023-08-01T05:01:52;16.40;99.90
31733;DHT22;18312;51.486;7.144;2023-08-01T05:04:20;16.40;99.90
31733;DHT22;18312;51.486;7.144;2023-08-01T05:06:47;16.40;99.90
31733;DHT22;18312;51.486;7.144;2023-08-01T05:09:13;16.40;99.90
31733;DHT22;18312;51.486;7.144;2023-08-01T05:11:40;16.40;99.90
31733;DHT22;18312;51.486;7.144;2023-08-01T05:14:07;16.40;99.90
31733;DHT22;18312;51.486;7.144;2023-08-01T05:16:34;16.40;99.90
31733;DHT22;18312;51.486;7.144;2023-08-01T05:19:00;16.40;99.90
31733;DHT22;18312;51.486;7.144;2023-08-01T05:21:28;16.40;99.90
31733;DHT22;18312;51.486;7.144;2023-08-01T05:23:55;16.40;99.90
31733;DHT22;18312;51.486;7.144;2023-08-01T05:26:22;16.40;99.90
31733;DHT22;18312;51.486;7.144;2023-08-01T05:28:49;16.50;99.90
31733;DHT22;18312;51.486;7.144;2023-08-01T05:31:16;16.40;99.90
31733;DHT22;18312;51.486;7.144;2023-08-01T05:33:42;16.50;99.90
31733;DHT22;18312;51.486;7.144;2023-08-01T05:36:09;16.40;99.90
31733;DHT22;18312;51.486;7.144;2023-08-01T05:38:38;16.40;99.90
31733;DHT22;18312;51.486;7.144;2023-08-01T05:41:04;16.50;99.90
31733;DHT22;18312;51.486;7.144;2023-08-01T05:43:31;16.60;99.90
31733;DHT22;18312;51.486;7.144;2023-08-01T05:45:58;16.50;99.90
31733;DHT22;18312;51.486;7.144;2023-08-01T05:48:25;16.60;99.90
31733;DHT22;18312;51.486;7.144;2023-08-01T05:50:52;16.50;99.90
31733;DHT22;18312;51.486;7.144;2023-08-01T05:53:20;16.50;99.90
31733;DHT22;18312;51.486;7.144;2023-08-01T05:55:49;16.50;99.90
31733;DHT22;18312;51.486;7.144;2023-08-01T05:58:15;16.50;99.90
31733;DHT22;18312;51.486;7.144;2023-08-01T06:00:42;16.50;99.90
31733;DHT22;18312;51.486;7.144;2023-08-01T06:03:09;16.60;99.90
31733;DHT22;18312;51.486;7.144;2023-08-01T06:05:36;16.50;99.90
31733;DHT22;18312;51.486;7.144;2023-08-01T06:08:05;16.60;99.90
31733;DHT22;18312;51.486;7.144;2023-08-01T06:10:32;16.70;99.90
31733;DHT22;18312;51.486;7.144;2023-08-01T06:13:00;16.70;99.90
31733;DHT22;18312;51.486;7.144;2023-08-01T06:15:26;16.70;99.90
31733;DHT22;18312;51.486;7.144;2023-08-01T06:17:53;16.70;99.90
31733;DHT22;18312;51.486;7.144;2023-08-01T06:20:20;16.70;99.90
31733;DHT22;18312;51.486;7.144;2023-08-01T06:22:47;16.70;99.90
31733;DHT22;18312;51.486;7.144;2023-08-01T06:25:14;16.70;99.90
31733;DHT22;18312;51.486;7.144;2023-08-01T06:27:40;16.70;99.90
31733;DHT22;18312;51.486;7.144;2023-08-01T06:30:09;16.80;99.90
31733;DHT22;18312;51.486;7.144;2023-08-01T06:32:36;16.80;99.90
31733;DHT22;18312;51.486;7.144;2023-08-01T06:35:04;17.00;99.90
31733;DHT22;18312;51.486;7.144;2023-08-01T06:37:30;17.00;99.90
31733;DHT22;18312;51.486;7.144;2023-08-01T06:39:57;17.00;99.90
31733;DHT22;18312;51.486;7.144;2023-08-01T06:42:24;17.10;99.90
31733;DHT22;18312;51.486;7.144;2023-08-01T06:44:51;17.10;99.90
31733;DHT22;18312;51.486;7.144;2023-08-01T06:47:19;17.10;99.90
31733;DHT22;18312;51.486;7.144;2023-08-01T06:49:46;17.10;99.90
31733;DHT22;18312;51.486;7.144;2023-08-01T06:52:12;17.10;99.90
31733;DHT22;18312;51.486;7.144;2023-08-01T06:54:39;17.10;99.90
31733;DHT22;18312;51.486;7.144;2023-08-01T06:57:06;17.20;99.90
31733;DHT22;18312;51.486;7.144;2023-08-01T06:59:33;17.30;99.90
31733;DHT22;18312;51.486;7.144;2023-08-01T07:02:00;17.20;99.90
31733;DHT22;18312;51.486;7.144;2023-08-01T07:04:28;17.30;99.90
31733;DHT22;18312;51.486;7.144;2023-08-01T07:06:55;17.30;99.90
31733;DHT22;18312;51.486;7.144;2023-08-01T07:09:22;17.20;99.90
31733;DHT22;18312;51.486;7.144;2023-08-01T07:11:48;17.20;99.90
31733;DHT22;18312;51.486;7.144;2023-08-01T07:14:15;17.20;99.90
31733;DHT22;18312;51.486;7.144;2023-08-01T07:16:42;17.30;99.90
31733;DHT22;18312;51.486;7.144;2023-08-01T07:19:08;17.30;99.90
31733;DHT22;18312;51.486;7.144;2023-08-01T07:21:37;17.30;99.90
31733;DHT22;18312;51.486;7.144;2023-08-01T07:24:04;17.30;99.90
31733;DHT22;18312;51.486;7.144;2023-08-01T07:26:31;17.50;99.90
31733;DHT22;18312;51.486;7.144;2023-08-01T07:28:58;17.50;99.90
31733;DHT22;18312;51.486;7.144;2023-08-01T07:31:25;17.30;99.90
31733;DHT22;18312;51.486;7.144;2023-08-01T07:33:51;17.30;99.90
31733;DHT22;18312;51.486;7.144;2023-08-01T07:36:18;17.50;99.90
31733;DHT22;18312;51.486;7.144;2023-08-01T07:38:49;17.60;99.90
31733;DHT22;18312;51.486;7.144;2023-08-01T07:41:18;17.50;99.90
31733;DHT22;18312;51.486;7.144;2023-08-01T07:43:45;17.60;99.90
31733;DHT22;18312;51.486;7.144;2023-08-01T07:46:13;17.80;99.90
31733;DHT22;18312;51.486;7.144;2023-08-01T07:48:39;18.20;99.90
31733;DHT22;18312;51.486;7.144;2023-08-01T07:51:08;18.20;99.90
31733;DHT22;18312;51.486;7.144;2023-08-01T07:53:36;18.20;99.90
31733;DHT22;18312;51.486;7.144;2023-08-01T07:56:05;18.20;99.90
31733;DHT22;18312;51.486;7.144;2023-08-01T07:58:33;18.20;99.90
31733;DHT22;18312;51.486;7.144;2023-08-01T08:01:02;18.40;99.90
31733;DHT22;18312;51.486;7.144;2023-08-01T08:03:29;18.40;99.90
31733;DHT22;18312;51.486;7.144;2023-08-01T08:05:56;18.60;99.90
31733;DHT22;18312;51.486;7.144;2023-08-01T08:08:23;18.70;99.90
31733;DHT22;18312;51.486;7.144;2023-08-01T08:10:50;18.50;99.90
31733;DHT22;18312;51.486;7.144;2023-08-01T08:13:18;18.30;99.90
31733;DHT22;18312;51.486;7.144;2023-08-01T08:15:46;18.30;99.90
31733;DHT22;18312;51.486;7.144;2023-08-01T08:18:13;18.40;99.90
31733;DHT22;18312;51.486;7.144;2023-08-01T08:20:44;18.30;99.90
31733;DHT22;18312;51.486;7.144;2023-08-01T08:23:11;18.30;99.90
31733;DHT22;18312;51.486;7.144;2023-08-01T08:25:39;18.50;99.90
31733;DHT22;18312;51.486;7.144;2023-08-01T08:28:07;18.80;99.90
31733;DHT22;18312;51.486;7.144;2023-08-01T08:30:35;19.00;99.90
31733;DHT22;18312;51.486;7.144;2023-08-01T08:33:03;19.00;99.90
31733;DHT22;18312;51.486;7.144;2023-08-01T08:35:32;19.10;99.90
31733;DHT22;18312;51.486;7.144;2023-08-01T08:38:01;19.00;99.90
31733;DHT22;18312;51.486;7.144;2023-08-01T08:40:28;18.80;99.90
31733;DHT22;18312;51.486;7.144;2023-08-01T08:42:56;18.70;99.90
31733;DHT22;18312;51.486;7.144;2023-08-01T08:45:24;18.50;99.90
31733;DHT22;18312;51.486;7.144;2023-08-01T08:47:55;18.30;99.90
31733;DHT22;18312;51.486;7.144;2023-08-01T08:50:25;18.30;99.90
31733;DHT22;18312;51.486;7.144;2023-08-01T08:52:52;18.20;99.90
31733;DHT22;18312;51.486;7.144;2023-08-01T08:55:20;18.20;99.90
31733;DHT22;18312;51.486;7.144;2023-08-01T08:57:49;18.30;99.90
31733;DHT22;18312;51.486;7.144;2023-08-01T09:00:18;18.10;99.90
31733;DHT22;18312;51.486;7.144;2023-08-01T09:02:45;18.10;99.90
31733;DHT22;18312;51.486;7.144;2023-08-01T09:05:14;18.00;99.90
31733;DHT22;18312;51.486;7.144;2023-08-01T09:07:43;18.00;99.90
31733;DHT22;18312;51.486;7.144;2023-08-01T09:10:12;18.30;99.90
31733;DHT22;18312;51.486;7.144;2023-08-01T09:12:39;18.60;99.90
31733;DHT22;18312;51.486;7.144;2023-08-01T09:15:07;18.60;99.90
31733;DHT22;18312;51.486;7.144;2023-08-01T09:17:34;18.80;99.90
31733;DHT22;18312;51.486;7.144;2023-08-01T09:20:04;18.90;99.90
31733;DHT22;18312;51.486;7.144;2023-08-01T09:22:42;19.10;99.90
31733;DHT22;18312;51.486;7.144;2023-08-01T09:25:09;19.10;99.90
31733;DHT22;18312;51.486;7.144;2023-08-01T09:27:36;19.10;99.90
31733;DHT22;18312;51.486;7.144;2023-08-01T09:30:09;19.30;99.90
31733;DHT22;18312;51.486;7.144;2023-08-01T09:32:36;19.50;99.90
31733;DHT22;18312;51.486;7.144;2023-08-01T09:35:04;19.70;99.90
31733;DHT22;18312;51.486;7.144;2023-08-01T09:37:39;20.20;99.90
31733;DHT22;18312;51.486;7.144;2023-08-01T09:40:09;20.80;99.90
31733;DHT22;18312;51.486;7.144;2023-08-01T09:42:39;20.60;99.90
31733;DHT22;18312;51.486;7.144;2023-08-01T09:45:11;20.00;99.90
31733;DHT22;18312;51.486;7.144;2023-08-01T09:47:39;20.00;99.90
31733;DHT22;18312;51.486;7.144;2023-08-01T09:50:06;19.80;99.90
31733;DHT22;18312;51.486;7.144;2023-08-01T09:52:33;19.90;99.90
31733;DHT22;18312;51.486;7.144;2023-08-01T09:55:00;20.30;99.90
31733;DHT22;18312;51.486;7.144;2023-08-01T09:57:29;20.10;99.90
31733;DHT22;18312;51.486;7.144;2023-08-01T09:59:57;19.90;99.90
31733;DHT22;18312;51.486;7.144;2023-08-01T10:02:26;20.00;99.90
31733;DHT22;18312;51.486;7.144;2023-08-01T10:04:58;20.20;99.90
31733;DHT22;18312;51.486;7.144;2023-08-01T10:07:53;20.70;99.90
31733;DHT22;18312;51.486;7.144;2023-08-01T10:10:35;20.60;99.90
31733;DHT22;18312;51.486;7.144;2023-08-01T10:17:27;20.50;99.90
31733;DHT22;18312;51.486;7.144;2023-08-01T10:21:02;20.00;99.90
31733;DHT22;18312;51.486;7.144;2023-08-01T10:32:53;18.20;99.90
31733;DHT22;18312;51.486;7.144;2023-08-01T10:36:26;18.50;99.90
31733;DHT22;18312;51.486;7.144;2023-08-01T10:39:09;18.60;99.90
31733;DHT22;18312;51.486;7.144;2023-08-01T10:42:23;19.00;99.90
31733;DHT22;18312;51.486;7.144;2023-08-01T10:44:58;19.20;99.90
31733;DHT22;18312;51.486;7.144;2023-08-01T11:01:16;20.00;99.90
31733;DHT22;18312;51.486;7.144;2023-08-01T11:14:20;16.50;99.90
31733;DHT22;18312;51.486;7.144;2023-08-01T11:16:49;16.00;99.90
31733;DHT22;18312;51.486;7.144;2023-08-01T11:19:20;16.00;99.90
31733;DHT22;18312;51.486;7.144;2023-08-01T11:21:49;16.20;99.90
31733;DHT22;18312;51.486;7.144;2023-08-01T11:24:18;16.30;99.90
31733;DHT22;18312;51.486;7.144;2023-08-01T11:26:48;16.40;99.90
31733;DHT22;18312;51.486;7.144;2023-08-01T11:29:16;16.40;99.90
31733;DHT22;18312;51.486;7.144;2023-08-01T11:31:52;16.50;99.90
31733;DHT22;18312;51.486;7.144;2023-08-01T11:34:19;16.60;99.90
31733;DHT22;18312;51.486;7.144;2023-08-01T11:36:47;16.70;99.90
31733;DHT22;18312;51.486;7.144;2023-08-01T11:39:24;17.00;99.90
31733;DHT22;18312;51.486;7.144;2023-08-01T11:41:54;17.10;99.90
31733;DHT22;18312;51.486;7.144;2023-08-01T11:44:23;17.20;99.90
31733;DHT22;18312;51.486;7.144;2023-08-01T11:46:50;17.50;99.90
31733;DHT22;18312;51.486;7.144;2023-08-01T11:49:17;17.80;99.90
31733;DHT22;18312;51.486;7.144;2023-08-01T11:51:44;18.40;99.90
31733;DHT22;18312;51.486;7.144;2023-08-01T11:54:12;18.70;99.90
31733;DHT22;18312;51.486;7.144;2023-08-01T11:56:39;19.10;99.90
31733;DHT22;18312;51.486;7.144;2023-08-01T11:59:12;19.30;99.90
31733;DHT22;18312;51.486;7.144;2023-08-01T12:01:39;18.60;99.90
31733;DHT22;18312;51.486;7.144;2023-08-01T12:04:06;18.50;99.90
31733;DHT22;18312;51.486;7.144;2023-08-01T12:06:33;18.50;99.90
31733;DHT22;18312;51.486;7.144;2023-08-01T12:09:07;18.70;99.90
31733;DHT22;18312;51.486;7.144;2023-08-01T12:11:34;19.10;99.90
31733;DHT22;18312;51.486;7.144;2023-08-01T12:14:02;19.30;99.90
31733;DHT22;18312;51.486;7.144;2023-08-01T12:16:32;19.80;99.90
31733;DHT22;18312;51.486;7.144;2023-08-01T12:19:00;20.00;99.90
31733;DHT22;18312;51.486;7.144;2023-08-01T12:21:27;20.20;99.90
31733;DHT22;18312;51.486;7.144;2023-08-01T12:23:55;19.90;99.90
31733;DHT22;18312;51.486;7.144;2023-08-01T12:26:22;19.90;99.90
31733;DHT22;18312;51.486;7.144;2023-08-01T12:28:50;19.90;99.90
31733;DHT22;18312;51.486;7.144;2023-08-01T12:31:16;19.70;99.90
31733;DHT22;18312;51.486;7.144;2023-08-01T12:33:46;19.20;99.90
31733;DHT22;18312;51.486;7.144;2023-08-01T12:36:13;19.00;99.90
31733;DHT22;18312;51.486;7.144;2023-08-01T12:38:40;18.70;99.90
31733;DHT22;18312;51.486;7.144;2023-08-01T12:41:07;18.50;99.90
31733;DHT22;18312;51.486;7.144;2023-08-01T12:43:34;18.60;99.90
31733;DHT22;18312;51.486;7.144;2023-08-01T12:46:01;18.80;99.90
31733;DHT22;18312;51.486;7.144;2023-08-01T12:48:28;18.90;99.90
31733;DHT22;18312;51.486;7.144;2023-08-01T12:50:57;19.00;99.90
31733;DHT22;18312;51.486;7.144;2023-08-01T12:53:23;18.70;99.90
31733;DHT22;18312;51.486;7.144;2023-08-01T12:55:51;18.60;99.90
31733;DHT22;18312;51.486;7.144;2023-08-01T12:58:18;18.40;99.90
31733;DHT22;18312;51.486;7.144;2023-08-01T13:00:45;18.20;99.90
31733;DHT22;18312;51.486;7.144;2023-08-01T13:03:12;18.40;99.90
31733;DHT22;18312;51.486;7.144;2023-08-01T13:05:40;18.60;99.90
31733;DHT22;18312;51.486;7.144;2023-08-01T13:08:09;18.90;99.90
31733;DHT22;18312;51.486;7.144;2023-08-01T13:10:38;19.50;99.90
31733;DHT22;18312;51.486;7.144;2023-08-01T13:13:05;20.00;99.90
31733;DHT22;18312;51.486;7.144;2023-08-01T13:15:31;20.20;99.90
31733;DHT22;18312;51.486;7.144;2023-08-01T13:17:58;20.00;99.90
31733;DHT22;18312;51.486;7.144;2023-08-01T13:20:26;20.10;99.90
31733;DHT22;18312;51.486;7.144;2023-08-01T13:22:53;20.20;99.90
31733;DHT22;18312;51.486;7.144;2023-08-01T13:25:23;20.40;99.90
31733;DHT22;18312;51.486;7.144;2023-08-01T13:27:50;20.70;99.90
31733;DHT22;18312;51.486;7.144;2023-08-01T13:30:17;20.60;99.90
31733;DHT22;18312;51.486;7.144;2023-08-01T13:32:45;20.90;99.90
31733;DHT22;18312;51.486;7.144;2023-08-01T13:35:13;20.80;99.90
31733;DHT22;18312;51.486;7.144;2023-08-01T13:37:40;20.80;99.90
31733;DHT22;18312;51.486;7.144;2023-08-01T13:40:08;20.40;99.90
31733;DHT22;18312;51.486;7.144;2023-08-01T13:42:37;20.40;99.90
31733;DHT22;18312;51.486;7.144;2023-08-01T13:45:05;20.50;99.90
31733;DHT22;18312;51.486;7.144;2023-08-01T13:47:32;20.30;99.90
31733;DHT22;18312;51.486;7.144;2023-08-01T13:49:59;19.90;99.90
31733;DHT22;18312;51.486;7.144;2023-08-01T13:52:26;19.80;99.90
31733;DHT22;18312;51.486;7.144;2023-08-01T13:54:53;19.90;99.90
31733;DHT22;18312;51.486;7.144;2023-08-01T13:57:20;20.40;99.90
31733;DHT22;18312;51.486;7.144;2023-08-01T13:59:50;20.50;99.90
31733;DHT22;18312;51.486;7.144;2023-08-01T14:02:17;20.30;99.90
31733;DHT22;18312;51.486;7.144;2023-08-01T14:04:44;20.20;99.90
31733;DHT22;18312;51.486;7.144;2023-08-01T14:07:11;20.10;99.90
31733;DHT22;18312;51.486;7.144;2023-08-01T14:09:38;20.40;99.90
31733;DHT22;18312;51.486;7.144;2023-08-01T14:12:06;20.80;99.90
31733;DHT22;18312;51.486;7.144;2023-08-01T14:14:34;21.20;99.90
31733;DHT22;18312;51.486;7.144;2023-08-01T14:17:03;21.30;99.90
31733;DHT22;18312;51.486;7.144;2023-08-01T14:19:30;21.40;99.90
31733;DHT22;18312;51.486;7.144;2023-08-01T14:21:57;21.70;99.90
31733;DHT22;18312;51.486;7.144;2023-08-01T14:24:24;22.00;99.90
31733;DHT22;18312;51.486;7.144;2023-08-01T14:26:51;22.00;99.90
31733;DHT22;18312;51.486;7.144;2023-08-01T14:29:18;22.10;99.90
31733;DHT22;18312;51.486;7.144;2023-08-01T14:31:49;22.50;99.90
31733;DHT22;18312;51.486;7.144;2023-08-01T14:34:17;22.50;99.90
31733;DHT22;18312;51.486;7.144;2023-08-01T14:36:44;22.80;99.90
31733;DHT22;18312;51.486;7.144;2023-08-01T14:39:11;22.90;99.90
31733;DHT22;18312;51.486;7.144;2023-08-01T14:41:38;22.50;99.90
31733;DHT22;18312;51.486;7.144;2023-08-01T14:44:05;22.20;99.90
31733;DHT22;18312;51.486;7.144;2023-08-01T14:46:32;22.20;99.90
31733;DHT22;18312;51.486;7.144;2023-08-01T14:49:00;21.70;99.90
31733;DHT22;18312;51.486;7.144;2023-08-01T14:51:28;22.30;99.90
31733;DHT22;18312;51.486;7.144;2023-08-01T14:53:55;22.70;99.90
31733;DHT22;18312;51.486;7.144;2023-08-01T14:56:22;22.60;99.90
31733;DHT22;18312;51.486;7.144;2023-08-01T14:58:48;22.60;99.90
31733;DHT22;18312;51.486;7.144;2023-08-01T15:01:15;22.50;99.90
31733;DHT22;18312;51.486;7.144;2023-08-01T15:03:43;22.50;99.90
31733;DHT22;18312;51.486;7.144;2023-08-01T15:06:10;22.10;99.90
31733;DHT22;18312;51.486;7.144;2023-08-01T15:08:40;21.70;99.90
31733;DHT22;18312;51.486;7.144;2023-08-01T15:11:07;21.50;99.90
31733;DHT22;18312;51.486;7.144;2023-08-01T15:13:35;21.20;99.90
31733;DHT22;18312;51.486;7.144;2023-08-01T15:16:02;21.00;99.90
31733;DHT22;18312;51.486;7.144;2023-08-01T15:18:29;20.70;99.90
31733;DHT22;18312;51.486;7.144;2023-08-01T15:20:55;21.00;99.90
31733;DHT22;18312;51.486;7.144;2023-08-01T15:23:22;22.60;99.90
31733;DHT22;18312;51.486;7.144;2023-08-01T15:25:55;24.50;99.90
31733;DHT22;18312;51.486;7.144;2023-08-01T15:28:23;25.60;99.20
31733;DHT22;18312;51.486;7.144;2023-08-01T15:31:01;25.50;98.30
31733;DHT22;18312;51.486;7.144;2023-08-01T15:33:28;24.50;98.60
31733;DHT22;18312;51.486;7.144;2023-08-01T15:35:59;23.60;99.60
31733;DHT22;18312;51.486;7.144;2023-08-01T15:38:26;22.50;99.90
31733;DHT22;18312;51.486;7.144;2023-08-01T15:40:54;21.80;99.90
31733;DHT22;18312;51.486;7.144;2023-08-01T15:43:22;22.10;99.90
31733;DHT22;18312;51.486;7.144;2023-08-01T15:45:50;23.00;99.90
31733;DHT22;18312;51.486;7.144;2023-08-01T15:48:17;23.60;99.90
31733;DHT22;18312;51.486;7.144;2023-08-01T15:50:44;22.50;99.90
31733;DHT22;18312;51.486;7.144;2023-08-01T15:53:12;22.00;99.90
31733;DHT22;18312;51.486;7.144;2023-08-01T15:55:38;21.30;99.90
31733;DHT22;18312;51.486;7.144;2023-08-01T15:58:09;21.10;99.90
31733;DHT22;18312;51.486;7.144;2023-08-01T16:00:36;21.30;99.90
31733;DHT22;18312;51.486;7.144;2023-08-01T16:03:03;21.40;99.90
31733;DHT22;18312;51.486;7.144;2023-08-01T16:05:30;21.30;99.90
31733;DHT22;18312;51.486;7.144;2023-08-01T16:08:00;21.30;99.90
31733;DHT22;18312;51.486;7.144;2023-08-01T16:10:27;21.30;99.90
31733;DHT22;18312;51.486;7.144;2023-08-01T16:12:53;21.60;99.90
31733;DHT22;18312;51.486;7.144;2023-08-01T16:15:22;21.60;99.90